createdAt,value
2018-09-20T00:00:22.351Z,11.87
2018-09-20T00:02:26.556Z,7.27
2018-09-20T00:04:30.809Z,7.37
2018-09-20T00:06:35.057Z,9.00
2018-09-20T00:08:39.267Z,6.47
2018-09-20T00:10:43.486Z,8.73
2018-09-20T00:12:47.657Z,6.23
2018-09-20T00:14:51.855Z,10.43
2018-09-20T00:16:56.079Z,11.80
2018-09-20T00:19:00.288Z,11.93
2018-09-20T00:21:04.451Z,6.47
2018-09-20T00:23:08.645Z,6.00
2018-09-20T00:25:12.886Z,12.23
2018-09-20T00:27:17.327Z,12.20
2018-09-20T00:29:21.601Z,11.70
2018-09-20T00:31:25.761Z,7.80
2018-09-20T00:33:30.064Z,8.73
2018-09-20T00:35:34.234Z,5.50
2018-09-20T00:37:38.447Z,10.57
2018-09-20T00:39:42.659Z,8.70
2018-09-20T00:41:46.830Z,12.50
2018-09-20T00:43:50.991Z,12.63
2018-09-20T00:45:55.184Z,8.47
2018-09-20T00:47:59.402Z,10.77
2018-09-20T00:50:03.608Z,14.17
2018-09-20T00:52:07.853Z,8.80
2018-09-20T00:54:11.991Z,10.67
2018-09-20T00:56:16.155Z,13.87
2018-09-20T00:58:20.307Z,12.70
2018-09-20T01:00:24.645Z,6.00
2018-09-20T01:02:28.848Z,8.40
2018-09-20T01:04:33.165Z,15.37
2018-09-20T01:06:37.422Z,6.73
2018-09-20T01:08:41.982Z,7.77
2018-09-20T01:10:46.242Z,13.40
2018-09-20T01:12:50.407Z,7.33
2018-09-20T01:14:54.686Z,14.93
2018-09-20T01:16:58.863Z,9.87
2018-09-20T01:19:03.311Z,14.97
2018-09-20T01:21:07.209Z,8.30
2018-09-20T01:23:11.402Z,13.27
2018-09-20T01:25:15.708Z,10.37
2018-09-20T01:27:19.909Z,8.23
2018-09-20T01:29:24.121Z,8.47
2018-09-20T01:31:28.406Z,11.87
2018-09-20T01:33:32.613Z,6.97
2018-09-20T01:35:36.899Z,9.77
2018-09-20T01:37:41.075Z,15.97
2018-09-20T01:39:45.305Z,13.53
2018-09-20T01:41:49.530Z,6.97
2018-09-20T01:43:53.838Z,9.70
2018-09-20T01:46:10.582Z,8.80
2018-09-20T01:48:14.827Z,8.70
2018-09-20T01:50:19.072Z,7.70
2018-09-20T01:52:23.268Z,6.53
2018-09-20T01:54:27.563Z,9.90
2018-09-20T01:56:31.754Z,9.47
2018-09-20T01:58:35.964Z,10.70
2018-09-20T02:00:40.149Z,14.00
2018-09-20T02:02:44.474Z,11.90
2018-09-20T02:04:48.686Z,7.13
2018-09-20T02:06:52.952Z,8.60
2018-09-20T02:08:57.174Z,9.00
2018-09-20T02:11:01.353Z,11.47
2018-09-20T02:13:05.614Z,10.17
2018-09-20T02:15:09.825Z,10.60
2018-09-20T02:17:14.045Z,11.83
2018-09-20T02:19:18.219Z,6.67
2018-09-20T02:21:22.403Z,9.83
2018-09-20T02:23:26.693Z,13.13
2018-09-20T02:25:30.914Z,8.97
2018-09-20T02:27:35.102Z,12.07
2018-09-20T02:29:39.386Z,10.93
2018-09-20T02:31:43.621Z,9.40
2018-09-20T02:33:47.796Z,8.87
2018-09-20T02:35:51.969Z,9.30
2018-09-20T02:37:56.776Z,11.13
2018-09-20T02:40:01.603Z,10.97
2018-09-20T02:42:05.900Z,10.83
2018-09-20T02:44:10.719Z,9.50
2018-09-20T02:46:15.898Z,15.77
2018-09-20T02:48:20.196Z,12.97
2018-09-20T02:50:24.385Z,9.17
2018-09-20T02:52:28.630Z,9.60
2018-09-20T02:54:32.785Z,9.87
2018-09-20T02:56:37.039Z,15.90
2018-09-20T02:58:41.853Z,11.93
2018-09-20T03:00:47.750Z,7.23
2018-09-20T03:02:51.885Z,13.93
2018-09-20T03:04:56.772Z,9.93
2018-09-20T03:07:01.106Z,9.60
2018-09-20T03:09:08.168Z,12.13
2018-09-20T03:11:12.908Z,9.67
2018-09-20T03:13:17.664Z,11.33
2018-09-20T03:15:22.364Z,12.40
2018-09-20T03:17:26.701Z,10.77
2018-09-20T03:19:30.898Z,7.23
2018-09-20T03:21:35.163Z,14.00
2018-09-20T03:23:39.475Z,8.90
2018-09-20T03:25:43.646Z,10.10
2018-09-20T03:27:47.806Z,7.20
2018-09-20T03:29:52.279Z,10.73
2018-09-20T03:31:56.468Z,14.10
2018-09-20T03:34:00.735Z,14.13
2018-09-20T03:36:04.950Z,12.10
2018-09-20T03:38:09.139Z,10.60
2018-09-20T03:40:13.394Z,9.73
2018-09-20T03:42:17.719Z,11.13
2018-09-20T03:44:21.890Z,8.83
2018-09-20T03:46:26.430Z,8.77
2018-09-20T03:48:30.764Z,5.13
2018-09-20T03:50:34.964Z,8.33
2018-09-20T03:52:39.187Z,12.77
2018-09-20T03:54:43.364Z,11.20
2018-09-20T03:56:47.742Z,8.53
2018-09-20T03:58:52.007Z,11.00
2018-09-20T04:00:56.261Z,10.70
2018-09-20T04:03:00.537Z,11.33
2018-09-20T04:05:04.928Z,12.03
2018-09-20T04:07:09.151Z,12.40
2018-09-20T04:09:13.361Z,15.23
2018-09-20T04:11:17.597Z,16.17
2018-09-20T04:13:21.859Z,14.40
2018-09-20T04:15:26.143Z,13.37
2018-09-20T04:17:30.334Z,13.07
2018-09-20T04:19:34.531Z,14.20
2018-09-20T04:21:38.709Z,13.13
2018-09-20T04:23:42.895Z,16.37
2018-09-20T04:25:47.094Z,12.97
2018-09-20T04:27:51.371Z,16.83
2018-09-20T04:29:55.631Z,14.97
2018-09-20T04:31:59.851Z,13.23
2018-09-20T04:34:04.457Z,6.77
2018-09-20T04:36:08.627Z,8.27
2018-09-20T04:38:12.802Z,12.63
2018-09-20T04:40:17.056Z,11.03
2018-09-20T04:42:21.226Z,9.37
2018-09-20T04:44:25.433Z,12.87
2018-09-20T04:46:29.650Z,14.47
2018-09-20T04:48:33.801Z,7.50
2018-09-20T04:50:38.123Z,9.93
2018-09-20T04:52:42.320Z,11.67
2018-09-20T04:54:46.538Z,12.37
2018-09-20T04:56:50.687Z,10.67
2018-09-20T04:58:54.883Z,10.97
2018-09-20T05:00:59.194Z,11.07
2018-09-20T05:03:03.384Z,13.43
2018-09-20T05:05:07.547Z,14.57
2018-09-20T05:07:11.951Z,9.87
2018-09-20T05:09:16.058Z,14.40
2018-09-20T05:11:20.266Z,11.27
2018-09-20T05:13:24.495Z,7.40
2018-09-20T05:15:28.704Z,8.77
2018-09-20T05:17:32.905Z,14.80
2018-09-20T05:19:37.109Z,11.23
2018-09-20T05:21:42.455Z,13.30
2018-09-20T05:23:47.240Z,13.73
2018-09-20T05:25:51.873Z,14.33
2018-09-20T05:27:56.181Z,7.40
2018-09-20T05:30:01.110Z,12.73
2018-09-20T05:32:06.221Z,11.17
2018-09-20T05:34:10.416Z,12.17
2018-09-20T05:36:14.635Z,9.90
2018-09-20T05:38:18.894Z,12.27
2018-09-20T05:40:23.130Z,13.33
2018-09-20T05:42:27.301Z,13.77
2018-09-20T05:44:31.658Z,12.80
2018-09-20T05:46:35.898Z,10.50
2018-09-20T05:48:40.299Z,11.43
2018-09-20T05:50:44.504Z,19.30
2018-09-20T05:52:48.699Z,14.43
2018-09-20T05:54:52.949Z,9.13
2018-09-20T05:56:57.242Z,12.37
2018-09-20T05:59:01.438Z,16.60
2018-09-20T06:01:05.683Z,12.50
2018-09-20T06:03:09.939Z,8.87
2018-09-20T06:05:14.129Z,14.03
2018-09-20T06:07:18.392Z,23.27
2018-09-20T06:09:22.787Z,8.93
2018-09-20T06:11:27.060Z,15.10
2018-09-20T06:13:31.851Z,21.60
2018-09-20T06:15:36.055Z,18.73
2018-09-20T06:17:40.228Z,25.43
2018-09-20T06:19:44.401Z,12.37
2018-09-20T06:21:48.651Z,22.17
2018-09-20T06:23:52.799Z,19.33
2018-09-20T06:25:57.495Z,18.43
2018-09-20T06:28:01.671Z,18.70
2018-09-20T06:30:06.696Z,22.22
2018-09-20T06:32:10.873Z,15.83
2018-09-20T06:34:15.152Z,12.70
2018-09-20T06:36:19.348Z,12.17
2018-09-20T06:38:23.560Z,15.93
2018-09-20T06:40:27.784Z,16.60
2018-09-20T06:42:31.974Z,20.87
2018-09-20T06:44:36.286Z,18.43
2018-09-20T06:46:40.612Z,26.03
2018-09-20T06:48:44.830Z,28.87
2018-09-20T06:50:49.113Z,26.80
2018-09-20T06:52:53.260Z,17.40
2018-09-20T06:54:57.556Z,22.93
2018-09-20T06:57:01.769Z,22.50
2018-09-20T06:59:05.924Z,22.23
2018-09-20T07:01:10.151Z,28.77
2018-09-20T07:03:14.454Z,18.93
2018-09-20T07:05:18.763Z,24.33
2018-09-20T07:07:23.006Z,19.47
2018-09-20T07:09:27.215Z,21.37
2018-09-20T07:11:31.533Z,19.67
2018-09-20T07:13:35.756Z,12.73
2018-09-20T07:15:40.004Z,14.80
2018-09-20T07:17:44.283Z,27.73
2018-09-20T07:19:48.521Z,20.10
2018-09-20T07:21:53.020Z,26.90
2018-09-20T07:23:57.173Z,23.40
2018-09-20T07:26:01.653Z,21.23
2018-09-20T07:28:05.858Z,16.20
2018-09-20T07:30:10.243Z,14.87
2018-09-20T07:32:14.504Z,14.77
2018-09-20T07:34:18.755Z,13.07
2018-09-20T07:36:22.930Z,12.13
2018-09-20T07:38:27.082Z,11.77
2018-09-20T07:40:31.230Z,11.80
2018-09-20T07:42:35.462Z,13.37
2018-09-20T07:44:39.662Z,13.03
2018-09-20T07:46:43.947Z,12.27
2018-09-20T07:48:48.534Z,10.20
2018-09-20T07:50:53.213Z,10.50
2018-09-20T07:52:57.810Z,13.83
2018-09-20T07:55:02.007Z,11.43
2018-09-20T07:57:06.248Z,14.30
2018-09-20T07:59:10.523Z,13.67
2018-09-20T08:01:14.792Z,11.43
2018-09-20T08:03:19.028Z,11.43
2018-09-20T08:05:23.192Z,11.37
2018-09-20T08:07:27.442Z,12.43
2018-09-20T08:09:31.733Z,12.27
2018-09-20T08:11:35.871Z,14.17
2018-09-20T08:13:40.178Z,13.30
2018-09-20T08:15:44.398Z,8.27
2018-09-20T08:17:48.543Z,9.20
2018-09-20T08:19:53.132Z,12.90
2018-09-20T08:21:57.343Z,10.67
2018-09-20T08:24:01.625Z,10.30
2018-09-20T08:26:05.837Z,10.77
2018-09-20T08:28:10.136Z,13.80
2018-09-20T08:30:14.360Z,12.10
2018-09-20T08:32:18.598Z,22.40
2018-09-20T08:34:22.801Z,13.10
2018-09-20T08:36:27.054Z,11.57
2018-09-20T08:38:31.270Z,11.50
2018-09-20T08:40:35.480Z,8.53
2018-09-20T08:42:39.679Z,9.60
2018-09-20T08:44:43.910Z,11.40
2018-09-20T08:46:48.115Z,19.67
2018-09-20T08:48:52.350Z,20.17
2018-09-20T08:50:56.588Z,14.33
2018-09-20T08:53:01.017Z,11.20
2018-09-20T08:55:06.287Z,10.30
2018-09-20T08:57:10.572Z,11.77
2018-09-20T08:59:14.727Z,11.67
2018-09-20T09:01:18.950Z,9.50
2018-09-20T09:03:23.132Z,11.90
2018-09-20T09:05:27.511Z,14.17
2018-09-20T09:07:31.656Z,11.20
2018-09-20T09:09:35.915Z,16.27
2018-09-20T09:11:42.566Z,12.17
2018-09-20T09:13:53.882Z,9.03
2018-09-20T09:15:59.197Z,15.23
2018-09-20T09:18:03.511Z,11.33
2018-09-20T09:20:07.765Z,7.23
2018-09-20T09:22:11.891Z,15.10
2018-09-20T09:24:16.119Z,12.90
2018-09-20T09:26:20.319Z,10.30
2018-09-20T09:28:24.497Z,15.57
2018-09-20T09:30:28.967Z,12.07
2018-09-20T09:32:33.139Z,13.47
2018-09-20T09:34:37.399Z,8.20
2018-09-20T09:36:42.247Z,8.67
2018-09-20T09:38:46.604Z,9.13
2018-09-20T09:40:50.934Z,10.23
2018-09-20T09:42:55.144Z,11.87
2018-09-20T09:44:59.336Z,12.53
2018-09-20T09:47:03.615Z,11.27
2018-09-20T09:49:07.805Z,11.23
2018-09-20T09:51:12.142Z,10.83
2018-09-20T09:53:16.459Z,10.13
2018-09-20T09:55:20.647Z,9.20
2018-09-20T09:57:24.834Z,15.00
2018-09-20T09:59:29.034Z,11.70
2018-09-20T10:01:33.333Z,9.27
2018-09-20T10:03:37.514Z,8.17
2018-09-20T10:05:41.808Z,11.30
2018-09-20T10:07:46.051Z,12.20
2018-09-20T10:09:50.275Z,15.37
2018-09-20T10:11:54.531Z,11.63
2018-09-20T10:13:58.706Z,9.07
2018-09-20T10:16:02.953Z,12.30
2018-09-20T10:18:07.187Z,13.33
2018-09-20T10:20:11.471Z,9.37
2018-09-20T10:22:15.955Z,8.87
2018-09-20T10:24:20.173Z,12.17
2018-09-20T10:26:24.578Z,10.73
2018-09-20T10:28:28.777Z,8.60
2018-09-20T10:30:33.119Z,10.07
2018-09-20T10:32:37.324Z,8.63
2018-09-20T10:34:41.531Z,16.80
2018-09-20T10:36:45.748Z,11.83
2018-09-20T10:38:50.558Z,10.57
2018-09-20T10:40:54.796Z,17.40
2018-09-20T10:42:59.002Z,22.47
2018-09-20T10:45:03.248Z,20.50
2018-09-20T10:47:07.434Z,11.17
2018-09-20T10:49:11.595Z,13.23
2018-09-20T10:51:15.822Z,13.07
2018-09-20T10:53:20.274Z,14.63
2018-09-20T10:55:24.455Z,13.63
2018-09-20T10:57:28.633Z,10.90
2018-09-20T10:59:32.799Z,12.20
2018-09-20T11:01:37.457Z,12.37
2018-09-20T11:03:45.748Z,16.40
2018-09-20T11:05:50.071Z,14.53
2018-09-20T11:07:54.346Z,12.60
2018-09-20T11:09:58.554Z,11.87
2018-09-20T11:12:02.801Z,11.40
2018-09-20T11:14:07.116Z,13.17
2018-09-20T11:16:11.403Z,15.70
2018-09-20T11:18:16.003Z,12.30
2018-09-20T11:20:20.182Z,11.83
2018-09-20T11:22:24.381Z,9.43
2018-09-20T11:24:28.827Z,9.37
2018-09-20T11:26:33.039Z,11.10
2018-09-20T11:28:37.263Z,8.73
2018-09-20T11:30:41.509Z,9.63
2018-09-20T11:32:45.642Z,10.17
2018-09-20T11:34:49.860Z,13.00
2018-09-20T11:36:54.104Z,10.17
2018-09-20T11:38:58.372Z,9.60
2018-09-20T11:41:02.636Z,8.77
2018-09-20T11:43:06.898Z,10.70
2018-09-20T11:45:11.156Z,8.57
2018-09-20T11:47:15.335Z,14.00
2018-09-20T11:49:19.679Z,9.60
2018-09-20T11:51:23.917Z,10.93
2018-09-20T11:53:28.151Z,11.93
2018-09-20T11:55:32.422Z,16.60
2018-09-20T11:57:36.626Z,7.77
2018-09-20T11:59:40.860Z,9.13
2018-09-20T12:01:45.084Z,12.47
2018-09-20T12:03:49.284Z,13.80
2018-09-20T12:05:53.511Z,9.03
2018-09-20T12:07:57.734Z,12.77
2018-09-20T12:10:01.934Z,11.63
2018-09-20T12:12:06.243Z,15.33
2018-09-20T12:14:10.451Z,15.33
2018-09-20T12:16:14.681Z,9.97
2018-09-20T12:18:18.925Z,10.87
2018-09-20T12:20:23.137Z,15.60
2018-09-20T12:22:27.368Z,11.73
2018-09-20T12:24:31.646Z,14.53
2018-09-20T12:26:35.925Z,10.73
2018-09-20T12:28:40.139Z,9.13
2018-09-20T12:30:44.300Z,13.57
2018-09-20T12:32:49.471Z,9.20
2018-09-20T12:34:53.673Z,12.03
2018-09-20T12:36:58.972Z,10.13
2018-09-20T12:39:03.756Z,9.63
2018-09-20T12:41:08.215Z,11.27
2018-09-20T12:43:12.430Z,10.00
2018-09-20T12:45:16.653Z,8.87
2018-09-20T12:47:20.872Z,14.03
2018-09-20T12:49:25.105Z,8.73
2018-09-20T12:51:29.300Z,8.67
2018-09-20T12:53:33.467Z,10.13
2018-09-20T12:55:38.415Z,11.27
2018-09-20T12:57:42.656Z,11.87
2018-09-20T12:59:46.851Z,12.23
2018-09-20T13:01:51.615Z,7.73
2018-09-20T13:03:55.903Z,9.23
2018-09-20T13:06:00.181Z,7.20
2018-09-20T13:08:04.460Z,11.97
2018-09-20T13:10:08.723Z,12.53
2018-09-20T13:12:13.190Z,8.00
2018-09-20T13:14:17.386Z,8.53
2018-09-20T13:16:21.579Z,15.70
2018-09-20T13:18:25.887Z,14.33
2018-09-20T13:20:30.131Z,11.87
2018-09-20T13:22:38.027Z,8.33
2018-09-20T13:24:43.067Z,6.93
2018-09-20T13:26:47.590Z,11.17
2018-09-20T13:28:52.026Z,13.40
2018-09-20T13:30:56.914Z,7.17
2018-09-20T13:33:01.181Z,8.33
2018-09-20T13:35:06.437Z,12.60
2018-09-20T13:37:12.311Z,11.90
2018-09-20T13:39:16.574Z,14.13
2018-09-20T13:41:21.936Z,6.47
2018-09-20T13:43:26.215Z,7.87
2018-09-20T13:45:30.442Z,11.30
2018-09-20T13:47:34.686Z,10.83
2018-09-20T13:49:38.905Z,9.40
2018-09-20T13:51:43.297Z,8.60
2018-09-20T13:53:47.503Z,8.70
2018-09-20T13:55:52.021Z,9.70
2018-09-20T13:57:56.374Z,16.10
2018-09-20T14:00:00.547Z,8.10
2018-09-20T14:02:04.827Z,7.67
2018-09-20T14:04:09.080Z,7.80
2018-09-20T14:06:13.364Z,10.57
2018-09-20T14:08:17.624Z,9.70
2018-09-20T14:10:21.842Z,10.00
2018-09-20T14:12:26.043Z,11.87
2018-09-20T14:14:30.291Z,9.50
2018-09-20T14:16:34.499Z,12.37
2018-09-20T14:18:38.792Z,8.13
2018-09-20T14:20:43.278Z,9.30
2018-09-20T14:22:47.410Z,9.17
2018-09-20T14:24:51.582Z,7.93
2018-09-20T14:26:55.861Z,9.77
2018-09-20T14:29:00.088Z,10.93
2018-09-20T14:31:04.331Z,7.80
2018-09-20T14:33:08.488Z,9.00
2018-09-20T14:35:12.721Z,8.00
2018-09-20T14:37:17.016Z,8.47
2018-09-20T14:39:21.210Z,13.10
2018-09-20T14:41:25.428Z,11.00
2018-09-20T14:43:29.634Z,11.07
2018-09-20T14:45:33.771Z,9.50
2018-09-20T14:47:38.005Z,11.80
2018-09-20T14:49:42.208Z,13.43
2018-09-20T14:51:46.456Z,10.23
2018-09-20T14:53:50.662Z,14.83
2018-09-20T14:55:54.896Z,9.27
2018-09-20T14:57:59.117Z,9.50
2018-09-20T15:00:03.734Z,10.70
2018-09-20T15:02:07.960Z,10.80
2018-09-20T15:04:12.195Z,9.90
2018-09-20T15:06:16.453Z,7.93
2018-09-20T15:08:20.632Z,11.90
2018-09-20T15:10:24.857Z,13.77
2018-09-20T15:12:29.106Z,13.83
2018-09-20T15:14:33.257Z,10.23
2018-09-20T15:16:37.586Z,11.37
2018-09-20T15:18:41.821Z,10.13
2018-09-20T15:20:46.011Z,6.70
2018-09-20T15:22:50.185Z,9.63
2018-09-20T15:24:54.591Z,8.33
2018-09-20T15:26:58.771Z,12.73
2018-09-20T15:29:03.007Z,12.00
2018-09-20T15:31:08.008Z,10.67
2018-09-20T15:33:12.210Z,9.50
2018-09-20T15:35:16.439Z,9.47
2018-09-20T15:37:20.673Z,6.57
2018-09-20T15:39:24.857Z,7.90
2018-09-20T15:41:29.056Z,6.63
2018-09-20T15:43:33.277Z,7.80
2018-09-20T15:45:37.479Z,10.23
2018-09-20T15:47:41.684Z,8.20
2018-09-20T15:49:45.884Z,7.70
2018-09-20T15:51:50.086Z,10.60
2018-09-20T15:53:54.379Z,10.90
2018-09-20T15:55:58.569Z,10.67
2018-09-20T15:58:02.772Z,9.93
2018-09-20T16:00:07.209Z,6.90
2018-09-20T16:02:11.474Z,6.60
2018-09-20T16:04:15.671Z,10.20
2018-09-20T16:06:19.863Z,7.50
2018-09-20T16:08:24.051Z,9.57
2018-09-20T16:10:28.306Z,11.40
2018-09-20T16:12:32.786Z,6.30
2018-09-20T16:14:37.021Z,11.00
2018-09-20T16:16:41.137Z,6.80
2018-09-20T16:18:45.399Z,5.70
2018-09-20T16:20:49.562Z,11.20
2018-09-20T16:22:53.740Z,5.27
2018-09-20T16:24:57.923Z,7.23
2018-09-20T16:27:02.143Z,9.47
2018-09-20T16:29:20.874Z,9.50
2018-09-20T16:31:36.919Z,7.70
2018-09-20T16:33:54.081Z,5.47
2018-09-20T16:36:09.782Z,11.10
2018-09-20T16:38:58.507Z,8.10
2018-09-20T16:41:06.258Z,6.07
2018-09-20T16:43:10.519Z,7.43
2018-09-20T16:45:14.811Z,8.63
2018-09-20T16:47:19.019Z,7.23
2018-09-20T16:49:23.287Z,7.90
2018-09-20T16:51:27.515Z,9.37
2018-09-20T16:53:31.731Z,8.80
2018-09-20T16:55:36.159Z,7.77
2018-09-20T16:57:40.367Z,5.67
2018-09-20T16:59:44.602Z,8.70
2018-09-20T17:01:48.798Z,8.70
2018-09-20T17:03:53.026Z,7.00
2018-09-20T17:05:57.201Z,7.10
2018-09-20T17:08:01.371Z,8.40
2018-09-20T17:10:06.800Z,6.22
2018-09-20T17:12:11.059Z,6.00
2018-09-20T17:14:15.324Z,8.07
2018-09-20T17:16:19.645Z,7.60
2018-09-20T17:18:23.815Z,4.30
2018-09-20T17:20:28.011Z,9.00
2018-09-20T17:22:32.256Z,13.13
2018-09-20T17:24:36.551Z,11.10
2018-09-20T17:26:40.728Z,8.53
2018-09-20T17:28:44.944Z,10.93
2018-09-20T17:30:49.250Z,15.77
2018-09-20T17:32:53.471Z,11.63
2018-09-20T17:34:58.066Z,24.63
2018-09-20T17:37:02.935Z,25.67
2018-09-20T17:39:11.291Z,19.30
2018-09-20T17:41:19.840Z,19.00
2018-09-20T17:43:28.110Z,16.93
2018-09-20T17:45:32.294Z,19.70
2018-09-20T17:47:36.515Z,27.60
2018-09-20T17:49:40.748Z,31.23
2018-09-20T17:51:45.333Z,33.97
2018-09-20T17:53:49.983Z,37.10
2018-09-20T17:55:54.808Z,37.17
2018-09-20T17:57:59.556Z,42.47
2018-09-20T18:00:03.798Z,61.33
2018-09-20T18:02:08.051Z,41.67
2018-09-20T18:04:12.263Z,34.30
2018-09-20T18:06:16.451Z,31.13
2018-09-20T18:08:20.706Z,43.00
2018-09-20T18:10:24.903Z,22.30
2018-09-20T18:12:29.061Z,38.27
2018-09-20T18:14:33.371Z,39.40
2018-09-20T18:16:37.514Z,25.17
2018-09-20T18:18:41.742Z,39.07
2018-09-20T18:20:45.983Z,41.13
2018-09-20T18:22:50.194Z,39.40
2018-09-20T18:24:54.397Z,30.13
2018-09-20T18:26:58.603Z,34.83
2018-09-20T18:29:02.832Z,24.80
2018-09-20T18:31:07.098Z,28.93
2018-09-20T18:33:11.713Z,26.77
2018-09-20T18:35:16.003Z,24.57
2018-09-20T18:37:20.173Z,15.70
2018-09-20T18:39:24.330Z,13.63
2018-09-20T18:41:28.542Z,16.27
2018-09-20T18:43:32.805Z,16.87
2018-09-20T18:45:37.011Z,18.70
2018-09-20T18:47:41.230Z,16.80
2018-09-20T18:49:45.542Z,14.43
2018-09-20T18:51:49.769Z,19.77
2018-09-20T18:53:54.002Z,16.97
2018-09-20T18:55:58.159Z,13.53
2018-09-20T18:58:02.319Z,15.63
2018-09-20T19:00:07.363Z,8.23
2018-09-20T19:02:12.058Z,11.40
2018-09-20T19:04:16.227Z,25.70
2018-09-20T19:06:20.451Z,13.43
2018-09-20T19:08:24.701Z,9.73
2018-09-20T19:10:28.935Z,9.77
2018-09-20T19:12:33.139Z,7.93
2018-09-20T19:14:37.866Z,7.60
2018-09-20T19:16:42.062Z,8.93
2018-09-20T19:18:46.226Z,6.23
2018-09-20T19:20:50.538Z,10.83
2018-09-20T19:22:54.818Z,7.70
2018-09-20T19:24:58.990Z,7.43
2018-09-20T19:27:03.240Z,10.93
2018-09-20T19:29:07.412Z,11.87
2018-09-20T19:31:11.604Z,9.03
2018-09-20T19:33:15.906Z,5.43
2018-09-20T19:35:20.121Z,8.63
2018-09-20T19:37:24.334Z,8.70
2018-09-20T19:39:28.789Z,10.27
2018-09-20T19:41:33.007Z,5.57
2018-09-20T19:43:37.266Z,7.80
2018-09-20T19:45:41.565Z,8.17
2018-09-20T19:47:45.764Z,6.77
2018-09-20T19:49:49.956Z,7.10
2018-09-20T19:51:54.247Z,9.73
2018-09-20T19:53:59.372Z,5.53
2018-09-20T19:56:03.570Z,4.67
2018-09-20T19:58:07.798Z,6.40
2018-09-20T20:00:12.006Z,8.80
2018-09-20T20:02:16.217Z,6.63
2018-09-20T20:04:20.430Z,7.43
2018-09-20T20:06:24.632Z,6.43
2018-09-20T20:09:04.439Z,6.07
2018-09-20T20:11:08.386Z,7.53
2018-09-20T20:13:12.333Z,6.47
2018-09-20T20:15:16.539Z,5.63
2018-09-20T20:17:20.486Z,6.13
2018-09-20T20:19:24.470Z,6.57
2018-09-20T20:21:28.366Z,10.40
2018-09-20T20:23:32.756Z,6.87
2018-09-20T20:25:36.667Z,6.27
2018-09-20T20:27:40.578Z,6.50
2018-09-20T20:29:44.570Z,6.90
2018-09-20T20:31:48.497Z,7.37
2018-09-20T20:33:52.435Z,5.33
2018-09-20T20:35:56.484Z,9.23
2018-09-20T20:38:00.377Z,7.43
2018-09-20T20:40:04.335Z,4.03
2018-09-20T20:42:08.283Z,4.33
2018-09-20T20:44:12.307Z,4.57
2018-09-20T20:46:16.231Z,4.47
2018-09-20T20:48:20.136Z,9.33
2018-09-20T20:50:24.083Z,8.10
2018-09-20T20:52:28.053Z,4.80
2018-09-20T20:54:42.971Z,5.67
2018-09-20T20:56:47.210Z,7.80
2018-09-20T20:58:59.044Z,4.13
2018-09-20T21:01:03.027Z,6.43
2018-09-20T21:03:14.302Z,8.47
2018-09-20T21:05:18.284Z,22.10
2018-09-20T21:07:22.210Z,5.53
2018-09-20T21:09:26.164Z,6.17
2018-09-20T21:11:30.138Z,4.63
2018-09-20T21:13:43.505Z,4.37
2018-09-20T21:15:57.977Z,5.87
2018-09-20T21:18:01.930Z,5.63
2018-09-20T21:20:07.782Z,6.73
2018-09-20T21:22:11.756Z,3.93
2018-09-20T21:24:18.276Z,5.63
2018-09-20T21:26:22.309Z,6.33
2018-09-20T21:28:26.216Z,4.77
2018-09-20T21:30:30.979Z,6.97
2018-09-20T21:32:41.098Z,6.80
2018-09-20T21:34:45.046Z,3.40
2018-09-20T21:36:49.050Z,5.93
2018-09-20T21:39:00.535Z,6.87
2018-09-20T21:41:04.999Z,7.77
2018-09-20T21:43:13.764Z,8.80
2018-09-20T21:45:17.721Z,6.03
2018-09-20T21:47:21.920Z,7.77
2018-09-20T21:49:29.811Z,12.27
2018-09-20T21:51:33.765Z,5.80
2018-09-20T21:53:37.762Z,5.27
2018-09-20T21:55:42.166Z,6.87
2018-09-20T21:57:46.138Z,6.70
2018-09-20T21:59:50.065Z,4.90
2018-09-20T22:01:59.163Z,6.20
2018-09-20T22:04:04.845Z,6.10
2018-09-20T22:06:08.797Z,7.80
2018-09-20T22:08:13.389Z,5.53
2018-09-20T22:10:17.318Z,5.50
2018-09-20T22:12:21.263Z,5.60
2018-09-20T22:14:25.894Z,7.83
2018-09-20T22:16:29.829Z,6.60
2018-09-20T22:18:33.829Z,6.50
2018-09-20T22:20:37.766Z,9.00
2018-09-20T22:22:42.936Z,5.73
2018-09-20T22:24:46.846Z,6.73
2018-09-20T22:26:51.018Z,4.60
2018-09-20T22:28:55.342Z,7.97
2018-09-20T22:31:12.506Z,5.20
2018-09-20T22:33:18.391Z,5.63
2018-09-20T22:35:22.612Z,6.37
2018-09-20T22:37:26.818Z,12.33
2018-09-20T22:39:31.013Z,7.60
2018-09-20T22:41:35.204Z,6.80
2018-09-20T22:43:41.995Z,6.80
2018-09-20T22:45:46.174Z,7.97
2018-09-20T22:47:50.382Z,5.63
2018-09-20T22:49:54.591Z,8.07
2018-09-20T22:52:00.220Z,4.77
2018-09-20T22:54:04.411Z,6.17
2018-09-20T22:56:08.711Z,7.00
2018-09-20T22:58:12.933Z,4.37
2018-09-20T23:00:24.551Z,6.17
2018-09-20T23:02:28.768Z,8.60
2018-09-20T23:04:32.950Z,3.37
2018-09-20T23:06:37.197Z,5.53
2018-09-20T23:08:41.427Z,8.97
2018-09-20T23:10:45.722Z,9.13
2018-09-20T23:12:49.931Z,13.03
2018-09-20T23:14:54.204Z,7.00
2018-09-20T23:16:58.586Z,6.90
2018-09-20T23:19:02.819Z,6.30
2018-09-20T23:21:07.009Z,7.40
2018-09-20T23:23:11.173Z,5.37
2018-09-20T23:25:15.447Z,11.53
2018-09-20T23:27:19.596Z,6.37
2018-09-20T23:29:23.851Z,5.97
2018-09-20T23:31:28.393Z,6.70
2018-09-20T23:33:32.636Z,4.63
2018-09-20T23:35:36.824Z,7.90
2018-09-20T23:37:41.014Z,10.13
2018-09-20T23:39:45.212Z,6.50
2018-09-20T23:41:49.421Z,7.90
2018-09-20T23:43:53.666Z,7.77
2018-09-20T23:45:57.881Z,6.57
2018-09-20T23:48:02.088Z,4.93
2018-09-20T23:50:06.587Z,7.22
2018-09-20T23:52:11.087Z,8.63
2018-09-20T23:54:15.243Z,8.40
2018-09-20T23:56:19.430Z,10.50
2018-09-20T23:58:23.562Z,7.83
